sensor_id;sensor_type;location;lat;lon;timestamp;temperature;humidity
2010;DHT22;1008;47.404;8.502;2024-02-15T00:02:00;10.30;99.90
2010;DHT22;1008;47.404;8.502;2024-02-15T00:04:28;10.30;99.90
2010;DHT22;1008;47.404;8.502;2024-02-15T00:06:55;10.30;99.90
2010;DHT22;1008;47.404;8.502;2024-02-15T00:09:22;10.20;99.90
2010;DHT22;1008;47.404;8.502;2024-02-15T00:11:49;10.20;99.90
2010;DHT22;1008;47.404;8.502;2024-02-15T00:14:15;10.30;99.90
2010;DHT22;1008;47.404;8.502;2024-02-15T00:16:42;10.20;99.90
2010;DHT22;1008;47.404;8.502;2024-02-15T00:19:09;10.20;99.90
2010;DHT22;1008;47.404;8.502;2024-02-15T00:21:37;10.10;99.90
2010;DHT22;1008;47.404;8.502;2024-02-15T00:24:08;10.20;99.90
2010;DHT22;1008;47.404;8.502;2024-02-15T00:26:35;10.20;99.90
2010;DHT22;1008;47.404;8.502;2024-02-15T00:29:02;10.20;99.90
2010;DHT22;1008;47.404;8.502;2024-02-15T00:31:29;10.20;99.90
2010;DHT22;1008;47.404;8.502;2024-02-15T00:33:58;10.10;99.90
2010;DHT22;1008;47.404;8.502;2024-02-15T00:36:25;10.10;99.90
2010;DHT22;1008;47.404;8.502;2024-02-15T00:38:53;10.10;99.90
2010;DHT22;1008;47.404;8.502;2024-02-15T00:41:19;10.10;99.90
2010;DHT22;1008;47.404;8.502;2024-02-15T00:43:47;10.20;99.90
2010;DHT22;1008;47.404;8.502;2024-02-15T00:46:13;10.00;99.90
2010;DHT22;1008;47.404;8.502;2024-02-15T00:48:40;10.00;99.90
2010;DHT22;1008;47.404;8.502;2024-02-15T00:51:07;10.00;99.90
2010;DHT22;1008;47.404;8.502;2024-02-15T00:53:34;10.00;99.90
2010;DHT22;1008;47.404;8.502;2024-02-15T00:56:02;9.80;99.90
2010;DHT22;1008;47.404;8.502;2024-02-15T00:58:30;9.80;99.90
2010;DHT22;1008;47.404;8.502;2024-02-15T01:00:57;9.70;99.90
2010;DHT22;1008;47.404;8.502;2024-02-15T01:03:23;9.70;99.90
2010;DHT22;1008;47.404;8.502;2024-02-15T01:05:50;9.70;99.90
2010;DHT22;1008;47.404;8.502;2024-02-15T01:08:17;9.60;99.90
2010;DHT22;1008;47.404;8.502;2024-02-15T01:10:45;9.70;99.90
2010;DHT22;1008;47.404;8.502;2024-02-15T01:13:13;9.70;99.90
2010;DHT22;1008;47.404;8.502;2024-02-15T01:15:40;9.60;99.90
2010;DHT22;1008;47.404;8.502;2024-02-15T01:18:06;9.50;99.90
2010;DHT22;1008;47.404;8.502;2024-02-15T01:20:33;9.60;99.90
2010;DHT22;1008;47.404;8.502;2024-02-15T01:23:01;9.70;99.90
2010;DHT22;1008;47.404;8.502;2024-02-15T01:25:28;9.70;99.90
2010;DHT22;1008;47.404;8.502;2024-02-15T01:27:55;9.70;99.90
2010;DHT22;1008;47.404;8.502;2024-02-15T01:30:23;9.80;99.90
2010;DHT22;1008;47.404;8.502;2024-02-15T01:32:50;9.80;99.90
2010;DHT22;1008;47.404;8.502;2024-02-15T01:35:17;9.80;99.90
2010;DHT22;1008;47.404;8.502;2024-02-15T01:37:44;9.70;99.90
2010;DHT22;1008;47.404;8.502;2024-02-15T01:40:11;9.70;99.90
2010;DHT22;1008;47.404;8.502;2024-02-15T01:42:38;9.70;99.90
2010;DHT22;1008;47.404;8.502;2024-02-15T01:45:05;9.70;99.90
2010;DHT22;1008;47.404;8.502;2024-02-15T01:47:34;9.70;99.90
2010;DHT22;1008;47.404;8.502;2024-02-15T01:50:01;9.60;99.90
2010;DHT22;1008;47.404;8.502;2024-02-15T01:52:28;9.60;99.90
2010;DHT22;1008;47.404;8.502;2024-02-15T01:54:55;9.60;99.90
2010;DHT22;1008;47.404;8.502;2024-02-15T01:57:23;9.60;99.90
2010;DHT22;1008;47.404;8.502;2024-02-15T01:59:50;9.50;99.90
2010;DHT22;1008;47.404;8.502;2024-02-15T02:02:19;9.40;99.90
2010;DHT22;1008;47.404;8.502;2024-02-15T02:04:48;9.40;99.90
2010;DHT22;1008;47.404;8.502;2024-02-15T02:07:15;9.30;99.90
2010;DHT22;1008;47.404;8.502;2024-02-15T02:09:41;9.30;99.90
2010;DHT22;1008;47.404;8.502;2024-02-15T02:12:11;9.40;99.90
2010;DHT22;1008;47.404;8.502;2024-02-15T02:14:37;9.40;99.90
2010;DHT22;1008;47.404;8.502;2024-02-15T02:17:12;9.40;99.90
2010;DHT22;1008;47.404;8.502;2024-02-15T02:19:41;9.30;99.90
2010;DHT22;1008;47.404;8.502;2024-02-15T02:22:10;9.30;99.90
2010;DHT22;1008;47.404;8.502;2024-02-15T02:27:15;9.30;99.90
2010;DHT22;1008;47.404;8.502;2024-02-15T02:29:43;9.30;99.90
2010;DHT22;1008;47.404;8.502;2024-02-15T02:32:11;9.30;99.90
2010;DHT22;1008;47.404;8.502;2024-02-15T02:34:38;9.30;99.90
2010;DHT22;1008;47.404;8.502;2024-02-15T02:37:06;9.20;99.90
2010;DHT22;1008;47.404;8.502;2024-02-15T02:39:33;9.30;99.90
2010;DHT22;1008;47.404;8.502;2024-02-15T02:42:00;9.20;99.90
2010;DHT22;1008;47.404;8.502;2024-02-15T02:44:28;9.30;99.90
2010;DHT22;1008;47.404;8.502;2024-02-15T02:46:55;9.20;99.90
2010;DHT22;1008;47.404;8.502;2024-02-15T02:49:21;9.10;99.90
2010;DHT22;1008;47.404;8.502;2024-02-15T02:51:48;9.00;99.90
2010;DHT22;1008;47.404;8.502;2024-02-15T02:54:15;9.10;99.90
2010;DHT22;1008;47.404;8.502;2024-02-15T02:56:43;9.20;99.90
2010;DHT22;1008;47.404;8.502;2024-02-15T02:59:10;9.20;99.90
2010;DHT22;1008;47.404;8.502;2024-02-15T03:01:39;9.10;99.90
2010;DHT22;1008;47.404;8.502;2024-02-15T03:04:06;9.00;99.90
2010;DHT22;1008;47.404;8.502;2024-02-15T03:06:33;9.10;99.90
2010;DHT22;1008;47.404;8.502;2024-02-15T03:09:00;9.00;99.90
2010;DHT22;1008;47.404;8.502;2024-02-15T03:11:27;9.00;99.90
2010;DHT22;1008;47.404;8.502;2024-02-15T03:13:54;9.10;99.90
2010;DHT22;1008;47.404;8.502;2024-02-15T03:16:23;9.00;99.90
2010;DHT22;1008;47.404;8.502;2024-02-15T03:18:52;8.90;99.90
2010;DHT22;1008;47.404;8.502;2024-02-15T03:21:19;8.90;99.90
2010;DHT22;1008;47.404;8.502;2024-02-15T03:23:46;8.90;99.90
2010;DHT22;1008;47.404;8.502;2024-02-15T03:26:12;8.90;99.90
2010;DHT22;1008;47.404;8.502;2024-02-15T03:28:39;8.90;99.90
2010;DHT22;1008;47.404;8.502;2024-02-15T03:31:07;8.90;99.90
2010;DHT22;1008;47.404;8.502;2024-02-15T03:33:33;8.80;99.90
2010;DHT22;1008;47.404;8.502;2024-02-15T03:36:02;8.80;99.90
2010;DHT22;1008;47.404;8.502;2024-02-15T03:38:28;8.70;99.90
2010;DHT22;1008;47.404;8.502;2024-02-15T03:40:57;8.80;99.90
2010;DHT22;1008;47.404;8.502;2024-02-15T03:43:23;8.70;99.90
2010;DHT22;1008;47.404;8.502;2024-02-15T03:45:50;8.80;99.90
2010;DHT22;1008;47.404;8.502;2024-02-15T03:48:17;8.70;99.90
2010;DHT22;1008;47.404;8.502;2024-02-15T03:50:44;8.60;99.90
2010;DHT22;1008;47.404;8.502;2024-02-15T03:53:12;8.60;99.90
2010;DHT22;1008;47.404;8.502;2024-02-15T03:55:39;8.60;99.90
2010;DHT22;1008;47.404;8.502;2024-02-15T03:58:06;8.50;99.90
2010;DHT22;1008;47.404;8.502;2024-02-15T04:00:34;8.50;99.90
2010;DHT22;1008;47.404;8.502;2024-02-15T04:03:01;8.50;99.90
2010;DHT22;1008;47.404;8.502;2024-02-15T04:05:27;8.60;99.90
2010;DHT22;1008;47.404;8.502;2024-02-15T04:07:54;8.60;99.90
2010;DHT22;1008;47.404;8.502;2024-02-15T04:10:22;8.50;99.90
2010;DHT22;1008;47.404;8.502;2024-02-15T04:12:49;8.50;99.90
2010;DHT22;1008;47.404;8.502;2024-02-15T04:15:16;8.50;99.90
2010;DHT22;1008;47.404;8.502;2024-02-15T04:17:43;8.50;99.90
2010;DHT22;1008;47.404;8.502;2024-02-15T04:20:11;8.50;99.90
2010;DHT22;1008;47.404;8.502;2024-02-15T04:22:40;8.40;99.90
2010;DHT22;1008;47.404;8.502;2024-02-15T04:25:09;8.50;99.90
2010;DHT22;1008;47.404;8.502;2024-02-15T04:27:37;8.40;99.90
2010;DHT22;1008;47.404;8.502;2024-02-15T04:30:05;8.40;99.90
2010;DHT22;1008;47.404;8.502;2024-02-15T04:32:32;8.10;99.90
2010;DHT22;1008;47.404;8.502;2024-02-15T04:35:00;8.10;99.90
2010;DHT22;1008;47.404;8.502;2024-02-15T04:37:27;8.10;99.90
2010;DHT22;1008;47.404;8.502;2024-02-15T04:39:57;8.10;99.90
2010;DHT22;1008;47.404;8.502;2024-02-15T04:42:24;8.10;99.90
2010;DHT22;1008;47.404;8.502;2024-02-15T04:44:54;8.10;99.90
2010;DHT22;1008;47.404;8.502;2024-02-15T04:47:22;8.10;99.90
2010;DHT22;1008;47.404;8.502;2024-02-15T04:49:48;8.20;99.90
2010;DHT22;1008;47.404;8.502;2024-02-15T04:52:15;8.30;99.90
2010;DHT22;1008;47.404;8.502;2024-02-15T04:54:43;8.30;99.90
2010;DHT22;1008;47.404;8.502;2024-02-15T04:57:09;8.30;99.90
2010;DHT22;1008;47.404;8.502;2024-02-15T04:59:37;8.30;99.90
2010;DHT22;1008;47.404;8.502;2024-02-15T05:02:05;8.30;99.90
2010;DHT22;1008;47.404;8.502;2024-02-15T05:04:33;8.20;99.90
2010;DHT22;1008;47.404;8.502;2024-02-15T05:07:01;8.00;99.90
2010;DHT22;1008;47.404;8.502;2024-02-15T05:09:29;8.00;99.90
2010;DHT22;1008;47.404;8.502;2024-02-15T05:11:56;8.10;99.90
2010;DHT22;1008;47.404;8.502;2024-02-15T05:14:23;8.00;99.90
2010;DHT22;1008;47.404;8.502;2024-02-15T05:16:50;8.10;99.90
2010;DHT22;1008;47.404;8.502;2024-02-15T05:19:18;8.20;99.90
2010;DHT22;1008;47.404;8.502;2024-02-15T05:21:45;8.20;99.90
2010;DHT22;1008;47.404;8.502;2024-02-15T05:24:12;8.20;99.90
2010;DHT22;1008;47.404;8.502;2024-02-15T05:26:40;8.10;99.90
2010;DHT22;1008;47.404;8.502;2024-02-15T05:29:08;8.30;99.90
2010;DHT22;1008;47.404;8.502;2024-02-15T05:31:35;8.30;99.90
2010;DHT22;1008;47.404;8.502;2024-02-15T05:34:05;8.20;99.90
2010;DHT22;1008;47.404;8.502;2024-02-15T05:36:34;8.30;99.90
2010;DHT22;1008;47.404;8.502;2024-02-15T05:39:01;8.20;99.90
2010;DHT22;1008;47.404;8.502;2024-02-15T05:41:28;8.20;99.90
2010;DHT22;1008;47.404;8.502;2024-02-15T05:43:55;8.20;99.90
2010;DHT22;1008;47.404;8.502;2024-02-15T05:46:23;8.20;99.90
2010;DHT22;1008;47.404;8.502;2024-02-15T05:48:50;8.10;99.90
2010;DHT22;1008;47.404;8.502;2024-02-15T05:51:17;8.10;99.90
2010;DHT22;1008;47.404;8.502;2024-02-15T05:53:45;8.00;99.90
2010;DHT22;1008;47.404;8.502;2024-02-15T05:56:12;8.20;99.90
2010;DHT22;1008;47.404;8.502;2024-02-15T05:58:39;7.80;99.90
2010;DHT22;1008;47.404;8.502;2024-02-15T06:01:06;7.80;99.90
2010;DHT22;1008;47.404;8.502;2024-02-15T06:03:37;7.80;99.90
2010;DHT22;1008;47.404;8.502;2024-02-15T06:06:06;7.80;99.90
2010;DHT22;1008;47.404;8.502;2024-02-15T06:08:33;7.90;99.90
2010;DHT22;1008;47.404;8.502;2024-02-15T06:11:01;7.90;99.90
2010;DHT22;1008;47.404;8.502;2024-02-15T06:13:28;8.00;99.90
2010;DHT22;1008;47.404;8.502;2024-02-15T06:15:55;7.90;99.90
2010;DHT22;1008;47.404;8.502;2024-02-15T06:18:24;7.80;99.90
2010;DHT22;1008;47.404;8.502;2024-02-15T06:20:53;7.90;99.90
2010;DHT22;1008;47.404;8.502;2024-02-15T06:23:22;7.90;99.90
2010;DHT22;1008;47.404;8.502;2024-02-15T06:25:52;7.80;99.90
2010;DHT22;1008;47.404;8.502;2024-02-15T06:28:20;7.50;99.90
2010;DHT22;1008;47.404;8.502;2024-02-15T06:31:01;7.50;99.90
2010;DHT22;1008;47.404;8.502;2024-02-15T06:33:45;7.50;99.90
2010;DHT22;1008;47.404;8.502;2024-02-15T06:36:29;7.60;99.90
2010;DHT22;1008;47.404;8.502;2024-02-15T06:39:14;7.70;99.90
2010;DHT22;1008;47.404;8.502;2024-02-15T06:41:58;7.80;99.90
2010;DHT22;1008;47.404;8.502;2024-02-15T06:44:26;7.70;99.90
2010;DHT22;1008;47.404;8.502;2024-02-15T06:46:53;7.70;99.90
2010;DHT22;1008;47.404;8.502;2024-02-15T06:49:21;7.70;99.90
2010;DHT22;1008;47.404;8.502;2024-02-15T06:51:48;7.80;99.90
2010;DHT22;1008;47.404;8.502;2024-02-15T06:54:14;7.90;99.90
2010;DHT22;1008;47.404;8.502;2024-02-15T06:56:42;7.90;99.90
2010;DHT22;1008;47.404;8.502;2024-02-15T06:59:11;7.90;99.90
2010;DHT22;1008;47.404;8.502;2024-02-15T07:01:41;7.90;99.90
2010;DHT22;1008;47.404;8.502;2024-02-15T07:04:07;7.80;99.90
2010;DHT22;1008;47.404;8.502;2024-02-15T07:06:36;7.90;99.90
2010;DHT22;1008;47.404;8.502;2024-02-15T07:09:03;7.70;99.90
2010;DHT22;1008;47.404;8.502;2024-02-15T07:11:31;7.80;99.90
2010;DHT22;1008;47.404;8.502;2024-02-15T07:13:58;7.70;99.90
2010;DHT22;1008;47.404;8.502;2024-02-15T07:16:24;7.70;99.90
2010;DHT22;1008;47.404;8.502;2024-02-15T07:18:52;7.70;99.90
2010;DHT22;1008;47.404;8.502;2024-02-15T07:21:19;7.90;99.90
2010;DHT22;1008;47.404;8.502;2024-02-15T07:23:51;8.00;99.90
2010;DHT22;1008;47.404;8.502;2024-02-15T07:26:20;8.10;99.90
2010;DHT22;1008;47.404;8.502;2024-02-15T07:28:49;8.10;99.90
2010;DHT22;1008;47.404;8.502;2024-02-15T07:31:18;8.20;99.90
2010;DHT22;1008;47.404;8.502;2024-02-15T07:33:44;8.30;99.90
2010;DHT22;1008;47.404;8.502;2024-02-15T07:36:13;8.30;99.90
2010;DHT22;1008;47.404;8.502;2024-02-15T07:38:39;8.50;99.90
2010;DHT22;1008;47.404;8.502;2024-02-15T07:41:06;8.60;99.90
2010;DHT22;1008;47.404;8.502;2024-02-15T07:43:33;8.70;99.90
2010;DHT22;1008;47.404;8.502;2024-02-15T07:45:59;8.80;99.90
2010;DHT22;1008;47.404;8.502;2024-02-15T07:48:26;8.80;99.90
2010;DHT22;1008;47.404;8.502;2024-02-15T07:50:53;8.90;99.90
2010;DHT22;1008;47.404;8.502;2024-02-15T07:53:21;9.10;99.90
2010;DHT22;1008;47.404;8.502;2024-02-15T07:55:48;9.10;99.90
2010;DHT22;1008;47.404;8.502;2024-02-15T07:58:15;9.00;99.90
2010;DHT22;1008;47.404;8.502;2024-02-15T08:00:44;9.10;99.90
2010;DHT22;1008;47.404;8.502;2024-02-15T08:03:11;9.20;99.90
2010;DHT22;1008;47.404;8.502;2024-02-15T08:05:37;9.40;99.90
2010;DHT22;1008;47.404;8.502;2024-02-15T08:08:04;9.50;99.90
2010;DHT22;1008;47.404;8.502;2024-02-15T08:10:33;9.50;99.90
2010;DHT22;1008;47.404;8.502;2024-02-15T08:13:00;9.10;99.90
2010;DHT22;1008;47.404;8.502;2024-02-15T08:15:26;9.20;99.90
2010;DHT22;1008;47.404;8.502;2024-02-15T08:17:54;9.50;99.90
2010;DHT22;1008;47.404;8.502;2024-02-15T08:20:21;9.60;99.90
2010;DHT22;1008;47.404;8.502;2024-02-15T08:22:48;9.60;99.90
2010;DHT22;1008;47.404;8.502;2024-02-15T08:25:15;9.40;99.90
2010;DHT22;1008;47.404;8.502;2024-02-15T08:27:48;9.30;99.90
2010;DHT22;1008;47.404;8.502;2024-02-15T08:30:16;9.30;99.90
2010;DHT22;1008;47.404;8.502;2024-02-15T08:32:43;9.20;99.90
2010;DHT22;1008;47.404;8.502;2024-02-15T08:35:12;9.10;99.90
2010;DHT22;1008;47.404;8.502;2024-02-15T08:37:39;9.30;99.90
2010;DHT22;1008;47.404;8.502;2024-02-15T08:40:08;9.30;99.90
2010;DHT22;1008;47.404;8.502;2024-02-15T08:42:41;9.50;99.90
2010;DHT22;1008;47.404;8.502;2024-02-15T08:45:10;9.80;99.90
2010;DHT22;1008;47.404;8.502;2024-02-15T08:47:38;10.20;99.90
2010;DHT22;1008;47.404;8.502;2024-02-15T08:50:06;10.50;99.90
2010;DHT22;1008;47.404;8.502;2024-02-15T08:52:34;10.80;99.90
2010;DHT22;1008;47.404;8.502;2024-02-15T08:55:04;11.40;99.90
2010;DHT22;1008;47.404;8.502;2024-02-15T08:57:32;11.00;99.90
2010;DHT22;1008;47.404;8.502;2024-02-15T08:59:59;11.30;99.90
2010;DHT22;1008;47.404;8.502;2024-02-15T09:02:30;11.10;99.90
2010;DHT22;1008;47.404;8.502;2024-02-15T09:04:58;11.10;99.90
2010;DHT22;1008;47.404;8.502;2024-02-15T09:07:25;10.90;99.90
2010;DHT22;1008;47.404;8.502;2024-02-15T09:09:52;11.10;99.90
2010;DHT22;1008;47.404;8.502;2024-02-15T09:12:20;11.40;99.90
2010;DHT22;1008;47.404;8.502;2024-02-15T09:14:48;11.50;99.90
2010;DHT22;1008;47.404;8.502;2024-02-15T09:17:14;11.60;99.90
2010;DHT22;1008;47.404;8.502;2024-02-15T09:19:42;11.60;99.90
2010;DHT22;1008;47.404;8.502;2024-02-15T09:22:09;11.90;99.90
2010;DHT22;1008;47.404;8.502;2024-02-15T09:24:37;12.20;99.90
2010;DHT22;1008;47.404;8.502;2024-02-15T09:27:04;12.40;99.90
2010;DHT22;1008;47.404;8.502;2024-02-15T09:29:31;12.50;99.90
2010;DHT22;1008;47.404;8.502;2024-02-15T09:31:58;12.50;99.90
2010;DHT22;1008;47.404;8.502;2024-02-15T09:34:27;12.70;99.90
2010;DHT22;1008;47.404;8.502;2024-02-15T09:36:55;12.80;99.90
2010;DHT22;1008;47.404;8.502;2024-02-15T09:39:22;12.60;99.90
2010;DHT22;1008;47.404;8.502;2024-02-15T09:41:49;12.90;99.90
2010;DHT22;1008;47.404;8.502;2024-02-15T09:44:21;13.40;99.90
2010;DHT22;1008;47.404;8.502;2024-02-15T09:46:54;13.40;99.90
2010;DHT22;1008;47.404;8.502;2024-02-15T09:49:26;13.50;99.90
2010;DHT22;1008;47.404;8.502;2024-02-15T09:51:55;13.80;99.90
2010;DHT22;1008;47.404;8.502;2024-02-15T09:54:23;14.00;99.90
2010;DHT22;1008;47.404;8.502;2024-02-15T09:56:50;14.20;99.90
2010;DHT22;1008;47.404;8.502;2024-02-15T09:59:18;14.40;99.90
2010;DHT22;1008;47.404;8.502;2024-02-15T10:01:47;14.60;99.90
2010;DHT22;1008;47.404;8.502;2024-02-15T10:04:15;14.80;99.90
2010;DHT22;1008;47.404;8.502;2024-02-15T10:06:41;14.40;99.90
2010;DHT22;1008;47.404;8.502;2024-02-15T10:09:26;14.40;99.90
2010;DHT22;1008;47.404;8.502;2024-02-15T10:11:54;14.70;99.90
2010;DHT22;1008;47.404;8.502;2024-02-15T10:14:23;14.90;99.90
2010;DHT22;1008;47.404;8.502;2024-02-15T10:16:49;14.50;99.90
2010;DHT22;1008;47.404;8.502;2024-02-15T10:19:18;14.60;99.90
2010;DHT22;1008;47.404;8.502;2024-02-15T10:21:46;14.90;99.90
2010;DHT22;1008;47.404;8.502;2024-02-15T10:24:12;15.10;99.90
2010;DHT22;1008;47.404;8.502;2024-02-15T10:26:41;15.20;99.90
2010;DHT22;1008;47.404;8.502;2024-02-15T10:29:08;15.40;99.90
2010;DHT22;1008;47.404;8.502;2024-02-15T10:31:37;15.20;99.40
2010;DHT22;1008;47.404;8.502;2024-02-15T10:34:05;15.50;99.90
2010;DHT22;1008;47.404;8.502;2024-02-15T10:36:32;15.80;99.90
2010;DHT22;1008;47.404;8.502;2024-02-15T10:39:12;16.20;96.40
2010;DHT22;1008;47.404;8.502;2024-02-15T10:41:44;16.40;94.40
2010;DHT22;1008;47.404;8.502;2024-02-15T10:44:15;16.80;93.10
2010;DHT22;1008;47.404;8.502;2024-02-15T10:46:44;17.00;93.20
2010;DHT22;1008;47.404;8.502;2024-02-15T10:49:12;17.10;92.80
2010;DHT22;1008;47.404;8.502;2024-02-15T10:51:42;17.10;90.60
2010;DHT22;1008;47.404;8.502;2024-02-15T10:54:12;17.30;90.60
2010;DHT22;1008;47.404;8.502;2024-02-15T10:56:44;17.40;88.40
2010;DHT22;1008;47.404;8.502;2024-02-15T10:59:17;17.30;86.50
2010;DHT22;1008;47.404;8.502;2024-02-15T11:01:45;17.20;86.20
2010;DHT22;1008;47.404;8.502;2024-02-15T11:04:15;16.90;87.40
2010;DHT22;1008;47.404;8.502;2024-02-15T11:06:43;16.80;89.30
2010;DHT22;1008;47.404;8.502;2024-02-15T11:09:11;17.00;87.90
2010;DHT22;1008;47.404;8.502;2024-02-15T11:11:40;17.10;86.10
2010;DHT22;1008;47.404;8.502;2024-02-15T11:14:27;17.40;85.20
2010;DHT22;1008;47.404;8.502;2024-02-15T11:16:54;17.70;84.80
2010;DHT22;1008;47.404;8.502;2024-02-15T11:19:43;17.80;83.00
2010;DHT22;1008;47.404;8.502;2024-02-15T11:22:13;18.00;80.50
2010;DHT22;1008;47.404;8.502;2024-02-15T11:24:47;17.60;78.70
2010;DHT22;1008;47.404;8.502;2024-02-15T11:27:24;17.70;81.80
2010;DHT22;1008;47.404;8.502;2024-02-15T11:29:54;17.90;79.10
2010;DHT22;1008;47.404;8.502;2024-02-15T11:32:39;17.80;77.10
2010;DHT22;1008;47.404;8.502;2024-02-15T11:35:06;17.90;76.70
2010;DHT22;1008;47.404;8.502;2024-02-15T11:37:57;17.90;75.50
2010;DHT22;1008;47.404;8.502;2024-02-15T11:40:59;18.00;75.60
2010;DHT22;1008;47.404;8.502;2024-02-15T11:43:45;18.40;75.90
2010;DHT22;1008;47.404;8.502;2024-02-15T11:46:16;18.60;74.80
2010;DHT22;1008;47.404;8.502;2024-02-15T11:48:44;18.50;70.70
2010;DHT22;1008;47.404;8.502;2024-02-15T11:51:30;18.30;70.50
2010;DHT22;1008;47.404;8.502;2024-02-15T11:54:00;18.50;71.40
2010;DHT22;1008;47.404;8.502;2024-02-15T11:56:31;18.50;69.60
2010;DHT22;1008;47.404;8.502;2024-02-15T11:59:04;18.60;71.90
2010;DHT22;1008;47.404;8.502;2024-02-15T12:01:33;18.40;72.20
2010;DHT22;1008;47.404;8.502;2024-02-15T12:04:18;18.20;68.20
2010;DHT22;1008;47.404;8.502;2024-02-15T12:07:03;18.00;69.30
2010;DHT22;1008;47.404;8.502;2024-02-15T12:09:58;17.90;72.20
2010;DHT22;1008;47.404;8.502;2024-02-15T12:12:50;18.00;70.40
2010;DHT22;1008;47.404;8.502;2024-02-15T12:15:35;17.70;71.30
2010;DHT22;1008;47.404;8.502;2024-02-15T12:18:17;17.30;69.90
2010;DHT22;1008;47.404;8.502;2024-02-15T12:21:02;17.20;73.60
2010;DHT22;1008;47.404;8.502;2024-02-15T12:23:29;17.00;71.20
2010;DHT22;1008;47.404;8.502;2024-02-15T12:25:59;17.10;72.80
2010;DHT22;1008;47.404;8.502;2024-02-15T12:28:25;17.20;70.90
2010;DHT22;1008;47.404;8.502;2024-02-15T12:30:55;17.40;73.00
2010;DHT22;1008;47.404;8.502;2024-02-15T12:33:23;17.90;71.10
2010;DHT22;1008;47.404;8.502;2024-02-15T12:36:03;18.30;70.80
2010;DHT22;1008;47.404;8.502;2024-02-15T12:38:30;18.80;68.60
2010;DHT22;1008;47.404;8.502;2024-02-15T12:40:59;19.10;67.10
2010;DHT22;1008;47.404;8.502;2024-02-15T12:43:27;19.00;66.10
2010;DHT22;1008;47.404;8.502;2024-02-15T12:45:54;19.10;70.40
2010;DHT22;1008;47.404;8.502;2024-02-15T12:48:23;19.40;69.10
2010;DHT22;1008;47.404;8.502;2024-02-15T12:50:50;19.70;70.00
2010;DHT22;1008;47.404;8.502;2024-02-15T12:53:21;19.70;68.10
2010;DHT22;1008;47.404;8.502;2024-02-15T12:55:53;19.90;68.30
2010;DHT22;1008;47.404;8.502;2024-02-15T12:58:20;19.90;66.70
2010;DHT22;1008;47.404;8.502;2024-02-15T13:00:50;20.00;65.30
2010;DHT22;1008;47.404;8.502;2024-02-15T13:03:16;20.00;66.70
2010;DHT22;1008;47.404;8.502;2024-02-15T13:05:44;19.90;64.50
2010;DHT22;1008;47.404;8.502;2024-02-15T13:08:14;19.20;64.70
2010;DHT22;1008;47.404;8.502;2024-02-15T13:10:43;19.40;67.50
2010;DHT22;1008;47.404;8.502;2024-02-15T13:13:10;19.50;67.00
2010;DHT22;1008;47.404;8.502;2024-02-15T13:15:37;19.10;67.30
2010;DHT22;1008;47.404;8.502;2024-02-15T13:18:04;19.10;68.50
2010;DHT22;1008;47.404;8.502;2024-02-15T13:20:31;19.00;66.70
2010;DHT22;1008;47.404;8.502;2024-02-15T13:23:02;18.80;65.50
2010;DHT22;1008;47.404;8.502;2024-02-15T13:25:34;18.50;69.00
2010;DHT22;1008;47.404;8.502;2024-02-15T13:28:01;18.40;71.50
2010;DHT22;1008;47.404;8.502;2024-02-15T13:30:29;18.30;71.30
2010;DHT22;1008;47.404;8.502;2024-02-15T13:32:56;18.40;73.20
2010;DHT22;1008;47.404;8.502;2024-02-15T13:35:23;18.40;73.90
2010;DHT22;1008;47.404;8.502;2024-02-15T13:37:50;18.50;74.30
2010;DHT22;1008;47.404;8.502;2024-02-15T13:40:21;18.50;72.20
2010;DHT22;1008;47.404;8.502;2024-02-15T13:42:50;18.50;72.90
2010;DHT22;1008;47.404;8.502;2024-02-15T13:45:19;18.40;74.30
2010;DHT22;1008;47.404;8.502;2024-02-15T13:47:48;18.40;71.60
2010;DHT22;1008;47.404;8.502;2024-02-15T13:50:16;18.40;73.50
2010;DHT22;1008;47.404;8.502;2024-02-15T13:52:44;18.40;72.10
2010;DHT22;1008;47.404;8.502;2024-02-15T13:55:12;18.50;73.30
2010;DHT22;1008;47.404;8.502;2024-02-15T13:57:41;18.40;72.40
2010;DHT22;1008;47.404;8.502;2024-02-15T14:00:09;18.40;72.60
2010;DHT22;1008;47.404;8.502;2024-02-15T14:02:40;18.40;72.30
2010;DHT22;1008;47.404;8.502;2024-02-15T14:05:08;18.60;72.20
2010;DHT22;1008;47.404;8.502;2024-02-15T14:07:36;18.50;70.90
2010;DHT22;1008;47.404;8.502;2024-02-15T14:10:04;18.40;72.70
2010;DHT22;1008;47.404;8.502;2024-02-15T14:12:31;18.30;72.90
2010;DHT22;1008;47.404;8.502;2024-02-15T14:14:59;18.20;73.10
2010;DHT22;1008;47.404;8.502;2024-02-15T14:17:26;17.90;69.60
2010;DHT22;1008;47.404;8.502;2024-02-15T14:19:53;17.60;69.90
2010;DHT22;1008;47.404;8.502;2024-02-15T14:22:20;17.50;73.70
2010;DHT22;1008;47.404;8.502;2024-02-15T14:24:49;17.50;72.70
2010;DHT22;1008;47.404;8.502;2024-02-15T14:27:15;17.40;72.80
2010;DHT22;1008;47.404;8.502;2024-02-15T14:29:43;17.20;72.50
2010;DHT22;1008;47.404;8.502;2024-02-15T14:32:32;17.10;74.50
2010;DHT22;1008;47.404;8.502;2024-02-15T14:35:16;16.80;74.10
2010;DHT22;1008;47.404;8.502;2024-02-15T14:37:43;16.70;74.70
2010;DHT22;1008;47.404;8.502;2024-02-15T14:40:11;16.60;75.50
2010;DHT22;1008;47.404;8.502;2024-02-15T14:42:40;16.60;75.90
2010;DHT22;1008;47.404;8.502;2024-02-15T14:45:08;16.50;76.50
2010;DHT22;1008;47.404;8.502;2024-02-15T14:47:36;16.30;77.00
2010;DHT22;1008;47.404;8.502;2024-02-15T14:50:04;16.20;78.60
2010;DHT22;1008;47.404;8.502;2024-02-15T14:52:34;16.20;79.40
2010;DHT22;1008;47.404;8.502;2024-02-15T14:55:02;16.20;80.60
2010;DHT22;1008;47.404;8.502;2024-02-15T14:57:30;16.10;80.90
2010;DHT22;1008;47.404;8.502;2024-02-15T14:59:57;16.20;80.70
2010;DHT22;1008;47.404;8.502;2024-02-15T15:02:24;16.00;80.70
2010;DHT22;1008;47.404;8.502;2024-02-15T15:04:52;15.90;80.20
2010;DHT22;1008;47.404;8.502;2024-02-15T15:07:44;15.60;80.60
2010;DHT22;1008;47.404;8.502;2024-02-15T15:10:28;15.70;82.20
2010;DHT22;1008;47.404;8.502;2024-02-15T15:13:13;15.60;82.40
2010;DHT22;1008;47.404;8.502;2024-02-15T15:15:39;15.50;83.70
2010;DHT22;1008;47.404;8.502;2024-02-15T15:18:06;15.40;85.10
2010;DHT22;1008;47.404;8.502;2024-02-15T15:20:36;15.50;86.90
2010;DHT22;1008;47.404;8.502;2024-02-15T15:23:03;15.40;84.50
2010;DHT22;1008;47.404;8.502;2024-02-15T15:25:30;15.40;84.00
2010;DHT22;1008;47.404;8.502;2024-02-15T15:27:56;15.30;85.20
2010;DHT22;1008;47.404;8.502;2024-02-15T15:30:24;15.30;86.50
2010;DHT22;1008;47.404;8.502;2024-02-15T15:32:50;15.30;87.10
2010;DHT22;1008;47.404;8.502;2024-02-15T15:35:18;15.30;86.10
2010;DHT22;1008;47.404;8.502;2024-02-15T15:37:46;15.40;86.50
2010;DHT22;1008;47.404;8.502;2024-02-15T15:40:16;15.30;86.80
2010;DHT22;1008;47.404;8.502;2024-02-15T15:42:43;15.30;88.00
2010;DHT22;1008;47.404;8.502;2024-02-15T15:45:10;15.20;88.50
2010;DHT22;1008;47.404;8.502;2024-02-15T15:47:38;15.30;90.50
2010;DHT22;1008;47.404;8.502;2024-02-15T15:50:06;15.50;90.70
2010;DHT22;1008;47.404;8.502;2024-02-15T15:52:32;15.30;90.30
2010;DHT22;1008;47.404;8.502;2024-02-15T15:55:00;15.30;91.00
2010;DHT22;1008;47.404;8.502;2024-02-15T15:57:27;15.30;91.90
2010;DHT22;1008;47.404;8.502;2024-02-15T15:59:54;15.30;92.30
2010;DHT22;1008;47.404;8.502;2024-02-15T16:02:22;15.20;92.70
2010;DHT22;1008;47.404;8.502;2024-02-15T16:04:49;15.20;92.40
2010;DHT22;1008;47.404;8.502;2024-02-15T16:07:16;15.10;91.90
2010;DHT22;1008;47.404;8.502;2024-02-15T16:09:42;15.10;93.10
2010;DHT22;1008;47.404;8.502;2024-02-15T16:12:12;15.20;92.60
2010;DHT22;1008;47.404;8.502;2024-02-15T16:14:43;15.10;92.20
2010;DHT22;1008;47.404;8.502;2024-02-15T16:17:12;15.00;92.20
2010;DHT22;1008;47.404;8.502;2024-02-15T16:19:38;15.10;93.20
2010;DHT22;1008;47.404;8.502;2024-02-15T16:22:06;15.10;93.90
2010;DHT22;1008;47.404;8.502;2024-02-15T16:24:33;15.00;94.60